Other Surface Observations
Issued by NWS Great Falls, MT

Home | Current Version | Previous Version | Text Only | Print | Product List | Glossary On
Versions: 1 2 3 4 5 6 7 8 9 10 11 12 13 14 15 16 17 18 19 20 21 22 23 24 25 26 27 28 29 30 31 32 33 34 35 36 37 38 39 40 41 42 43 44 45 46 47 48 49 50
000
SXUS55 KTFX 260444
OSOTFX
AREA AWOS OBSERVATIONS
NATIONAL WEATHER SERVICE GREAT FALLS MT
0944 PM MST SAT FEB 25 2017

METAR KPWD 260445Z AUTO 00000KT 7SM M15/M17 A2968 RMK PLENTYWOOD
METAR KPO1 260445Z AUTO 10003KT 10SM M11/M13 A2970 RMK POPLAR
METAR K1S3 260445Z AUTO 20003KT 10SM M04/M08 A2968 RMK FORSYTH
METAR KS71 260445Z AUTO 27006KT 10SM M03/M07 A2962 RMK CHINOOK
METAR K79S 260445Z AUTO 10SM M02/M12 A2966 RMK FORT BENTON
METAR K38S 260445Z AUTO 00000KT 10SM M04/M14 A2980 RMK DEER LODGE
METAR K3U3 260445Z AUTO 24007KT 10SM M05/M14 A2978 RMK ANACONDA
METAR K6S5 260445Z AUTO 14004KT 10SM M02/M11 RMK HAMILTON
METAR KS59 260445Z AUTO 14004KT 10SM M02/M06 A2982 RMK LIBBY
METAR K88M 260445Z AUTO 16005KT 10SM M03/M07 A2981 RMK EUREKA



USA.gov is the U.S. government's official web portal to all federal, state and local government web resources and services.